sensor_id;sensor_type;location;lat;lon;timestamp;P1;durP1;ratioP1;P2;durP2;ratioP2
16320;SDS011;8269;50.990;4.494;2023-05-16T00:00:38;12.23;;;3.43;;
16320;SDS011;8269;50.990;4.494;2023-05-16T00:03:04;11.47;;;2.70;;
16320;SDS011;8269;50.990;4.494;2023-05-16T00:05:30;8.43;;;2.40;;
16320;SDS011;8269;50.990;4.494;2023-05-16T00:07:56;17.23;;;2.87;;
16320;SDS011;8269;50.990;4.494;2023-05-16T00:10:21;13.63;;;3.10;;
16320;SDS011;8269;50.990;4.494;2023-05-16T00:12:47;13.67;;;2.63;;
16320;SDS011;8269;50.990;4.494;2023-05-16T00:15:16;13.73;;;3.00;;
16320;SDS011;8269;50.990;4.494;2023-05-16T00:17:42;11.53;;;2.70;;
16320;SDS011;8269;50.990;4.494;2023-05-16T00:20:10;14.63;;;2.30;;
16320;SDS011;8269;50.990;4.494;2023-05-16T00:22:38;13.33;;;2.80;;
16320;SDS011;8269;50.990;4.494;2023-05-16T00:25:04;16.00;;;2.60;;
16320;SDS011;8269;50.990;4.494;2023-05-16T00:27:32;10.70;;;2.47;;
16320;SDS011;8269;50.990;4.494;2023-05-16T00:29:58;20.67;;;3.23;;
16320;SDS011;8269;50.990;4.494;2023-05-16T00:32:25;10.17;;;2.40;;
16320;SDS011;8269;50.990;4.494;2023-05-16T00:34:51;14.03;;;2.60;;
16320;SDS011;8269;50.990;4.494;2023-05-16T00:37:16;12.97;;;2.40;;
16320;SDS011;8269;50.990;4.494;2023-05-16T00:39:42;15.73;;;2.73;;
16320;SDS011;8269;50.990;4.494;2023-05-16T00:42:08;13.93;;;2.80;;
16320;SDS011;8269;50.990;4.494;2023-05-16T00:44:33;17.10;;;2.63;;
16320;SDS011;8269;50.990;4.494;2023-05-16T00:46:59;8.20;;;2.20;;
16320;SDS011;8269;50.990;4.494;2023-05-16T00:49:26;15.20;;;2.57;;
16320;SDS011;8269;50.990;4.494;2023-05-16T00:51:53;15.00;;;2.87;;
16320;SDS011;8269;50.990;4.494;2023-05-16T00:54:21;19.70;;;3.40;;
16320;SDS011;8269;50.990;4.494;2023-05-16T00:56:50;13.07;;;3.27;;
16320;SDS011;8269;50.990;4.494;2023-05-16T00:59:17;14.57;;;2.70;;
16320;SDS011;8269;50.990;4.494;2023-05-16T01:01:46;12.67;;;2.83;;
16320;SDS011;8269;50.990;4.494;2023-05-16T01:04:12;14.57;;;3.47;;
16320;SDS011;8269;50.990;4.494;2023-05-16T01:06:38;15.67;;;3.37;;
16320;SDS011;8269;50.990;4.494;2023-05-16T01:09:04;13.80;;;2.73;;
16320;SDS011;8269;50.990;4.494;2023-05-16T01:11:37;15.23;;;2.73;;
16320;SDS011;8269;50.990;4.494;2023-05-16T01:28:45;11.33;;;2.80;;
16320;SDS011;8269;50.990;4.494;2023-05-16T01:31:13;14.57;;;3.17;;
16320;SDS011;8269;50.990;4.494;2023-05-16T01:33:40;13.60;;;3.30;;
16320;SDS011;8269;50.990;4.494;2023-05-16T01:36:11;13.73;;;3.33;;
16320;SDS011;8269;50.990;4.494;2023-05-16T01:44:06;14.07;;;2.83;;
16320;SDS011;8269;50.990;4.494;2023-05-16T01:46:42;14.50;;;3.37;;
16320;SDS011;8269;50.990;4.494;2023-05-16T01:49:15;12.33;;;2.73;;
16320;SDS011;8269;50.990;4.494;2023-05-16T01:51:55;18.60;;;3.07;;
16320;SDS011;8269;50.990;4.494;2023-05-16T01:54:31;12.97;;;3.20;;
16320;SDS011;8269;50.990;4.494;2023-05-16T01:56:59;14.83;;;2.90;;
16320;SDS011;8269;50.990;4.494;2023-05-16T01:59:28;14.80;;;3.43;;
16320;SDS011;8269;50.990;4.494;2023-05-16T02:01:57;12.03;;;2.80;;
16320;SDS011;8269;50.990;4.494;2023-05-16T02:04:23;12.87;;;3.30;;
16320;SDS011;8269;50.990;4.494;2023-05-16T02:06:49;12.07;;;2.47;;
16320;SDS011;8269;50.990;4.494;2023-05-16T02:09:16;17.83;;;3.57;;
16320;SDS011;8269;50.990;4.494;2023-05-16T02:11:41;13.83;;;3.33;;
16320;SDS011;8269;50.990;4.494;2023-05-16T02:14:08;10.90;;;2.80;;
16320;SDS011;8269;50.990;4.494;2023-05-16T02:16:34;11.57;;;2.73;;
16320;SDS011;8269;50.990;4.494;2023-05-16T02:19:00;14.17;;;2.53;;
16320;SDS011;8269;50.990;4.494;2023-05-16T02:21:26;13.13;;;2.87;;
16320;SDS011;8269;50.990;4.494;2023-05-16T02:23:52;10.23;;;2.60;;
16320;SDS011;8269;50.990;4.494;2023-05-16T02:26:17;10.83;;;2.97;;
16320;SDS011;8269;50.990;4.494;2023-05-16T02:28:43;12.13;;;2.73;;
16320;SDS011;8269;50.990;4.494;2023-05-16T02:31:09;16.23;;;2.43;;
16320;SDS011;8269;50.990;4.494;2023-05-16T02:33:35;17.00;;;3.00;;
16320;SDS011;8269;50.990;4.494;2023-05-16T02:36:00;15.20;;;2.80;;
16320;SDS011;8269;50.990;4.494;2023-05-16T02:38:26;13.37;;;2.83;;
16320;SDS011;8269;50.990;4.494;2023-05-16T02:40:52;13.80;;;2.47;;
16320;SDS011;8269;50.990;4.494;2023-05-16T02:43:17;14.70;;;2.87;;
16320;SDS011;8269;50.990;4.494;2023-05-16T02:45:43;11.37;;;2.63;;
16320;SDS011;8269;50.990;4.494;2023-05-16T02:48:09;14.13;;;3.00;;
16320;SDS011;8269;50.990;4.494;2023-05-16T02:50:35;11.73;;;2.60;;
16320;SDS011;8269;50.990;4.494;2023-05-16T02:53:01;11.87;;;2.50;;
16320;SDS011;8269;50.990;4.494;2023-05-16T02:55:27;12.73;;;3.17;;
16320;SDS011;8269;50.990;4.494;2023-05-16T02:57:53;14.33;;;2.90;;
16320;SDS011;8269;50.990;4.494;2023-05-16T03:00:19;10.47;;;2.77;;
16320;SDS011;8269;50.990;4.494;2023-05-16T03:02:45;14.17;;;2.73;;
16320;SDS011;8269;50.990;4.494;2023-05-16T03:05:11;10.77;;;2.60;;
16320;SDS011;8269;50.990;4.494;2023-05-16T03:07:37;15.23;;;4.03;;
16320;SDS011;8269;50.990;4.494;2023-05-16T03:10:03;9.60;;;2.97;;
16320;SDS011;8269;50.990;4.494;2023-05-16T03:12:29;9.80;;;2.73;;
16320;SDS011;8269;50.990;4.494;2023-05-16T03:14:55;11.13;;;2.47;;
16320;SDS011;8269;50.990;4.494;2023-05-16T03:17:20;10.47;;;2.63;;
16320;SDS011;8269;50.990;4.494;2023-05-16T03:19:46;12.53;;;2.70;;
16320;SDS011;8269;50.990;4.494;2023-05-16T03:22:12;11.53;;;2.93;;
16320;SDS011;8269;50.990;4.494;2023-05-16T03:24:38;12.23;;;2.93;;
16320;SDS011;8269;50.990;4.494;2023-05-16T03:27:03;13.93;;;2.47;;
16320;SDS011;8269;50.990;4.494;2023-05-16T03:29:29;11.67;;;2.60;;
16320;SDS011;8269;50.990;4.494;2023-05-16T03:31:55;12.97;;;2.93;;
16320;SDS011;8269;50.990;4.494;2023-05-16T03:34:21;12.43;;;2.93;;
16320;SDS011;8269;50.990;4.494;2023-05-16T03:36:47;9.37;;;2.73;;
16320;SDS011;8269;50.990;4.494;2023-05-16T03:39:14;11.17;;;2.63;;
16320;SDS011;8269;50.990;4.494;2023-05-16T03:41:40;11.47;;;2.50;;
16320;SDS011;8269;50.990;4.494;2023-05-16T03:44:06;11.47;;;3.07;;
16320;SDS011;8269;50.990;4.494;2023-05-16T03:46:32;15.20;;;3.10;;
16320;SDS011;8269;50.990;4.494;2023-05-16T03:48:59;10.33;;;2.40;;
16320;SDS011;8269;50.990;4.494;2023-05-16T03:51:25;10.17;;;3.00;;
16320;SDS011;8269;50.990;4.494;2023-05-16T03:53:50;12.37;;;3.33;;
16320;SDS011;8269;50.990;4.494;2023-05-16T03:56:16;8.43;;;3.20;;
16320;SDS011;8269;50.990;4.494;2023-05-16T03:58:42;13.30;;;3.17;;
16320;SDS011;8269;50.990;4.494;2023-05-16T04:01:08;11.67;;;2.93;;
16320;SDS011;8269;50.990;4.494;2023-05-16T04:03:33;12.93;;;3.47;;
16320;SDS011;8269;50.990;4.494;2023-05-16T04:06:00;14.23;;;3.43;;
16320;SDS011;8269;50.990;4.494;2023-05-16T04:08:25;9.90;;;2.73;;
16320;SDS011;8269;50.990;4.494;2023-05-16T04:10:51;17.77;;;3.27;;
16320;SDS011;8269;50.990;4.494;2023-05-16T04:13:17;12.97;;;3.73;;
16320;SDS011;8269;50.990;4.494;2023-05-16T04:15:43;12.20;;;3.23;;
16320;SDS011;8269;50.990;4.494;2023-05-16T04:18:16;12.87;;;3.13;;
16320;SDS011;8269;50.990;4.494;2023-05-16T04:20:42;11.37;;;3.27;;
16320;SDS011;8269;50.990;4.494;2023-05-16T04:23:11;13.90;;;3.43;;
16320;SDS011;8269;50.990;4.494;2023-05-16T04:25:37;17.77;;;3.70;;
16320;SDS011;8269;50.990;4.494;2023-05-16T04:28:03;14.40;;;3.13;;
16320;SDS011;8269;50.990;4.494;2023-05-16T04:30:29;11.73;;;3.23;;
16320;SDS011;8269;50.990;4.494;2023-05-16T04:32:55;10.07;;;3.27;;
16320;SDS011;8269;50.990;4.494;2023-05-16T04:35:24;8.57;;;2.70;;
16320;SDS011;8269;50.990;4.494;2023-05-16T04:37:50;11.90;;;3.50;;
16320;SDS011;8269;50.990;4.494;2023-05-16T04:40:16;10.00;;;3.17;;
16320;SDS011;8269;50.990;4.494;2023-05-16T04:42:41;12.47;;;2.97;;
16320;SDS011;8269;50.990;4.494;2023-05-16T04:45:08;11.03;;;3.63;;
16320;SDS011;8269;50.990;4.494;2023-05-16T04:47:38;12.47;;;2.93;;
16320;SDS011;8269;50.990;4.494;2023-05-16T04:50:05;10.10;;;2.90;;
16320;SDS011;8269;50.990;4.494;2023-05-16T04:52:33;12.13;;;3.20;;
16320;SDS011;8269;50.990;4.494;2023-05-16T04:55:00;12.07;;;2.83;;
16320;SDS011;8269;50.990;4.494;2023-05-16T04:57:26;10.93;;;3.17;;
16320;SDS011;8269;50.990;4.494;2023-05-16T04:59:52;9.60;;;2.97;;
16320;SDS011;8269;50.990;4.494;2023-05-16T05:02:18;14.23;;;2.63;;
16320;SDS011;8269;50.990;4.494;2023-05-16T05:04:44;12.77;;;3.07;;
16320;SDS011;8269;50.990;4.494;2023-05-16T05:07:10;11.90;;;3.40;;
16320;SDS011;8269;50.990;4.494;2023-05-16T05:09:36;9.83;;;2.83;;
16320;SDS011;8269;50.990;4.494;2023-05-16T05:12:01;11.60;;;3.13;;
16320;SDS011;8269;50.990;4.494;2023-05-16T05:14:27;10.93;;;3.00;;
16320;SDS011;8269;50.990;4.494;2023-05-16T05:16:53;9.07;;;2.80;;
16320;SDS011;8269;50.990;4.494;2023-05-16T05:19:19;11.37;;;2.97;;
16320;SDS011;8269;50.990;4.494;2023-05-16T05:21:45;8.82;;;2.75;;
16320;SDS011;8269;50.990;4.494;2023-05-16T05:24:11;9.07;;;2.93;;
16320;SDS011;8269;50.990;4.494;2023-05-16T05:26:37;7.20;;;2.28;;
16320;SDS011;8269;50.990;4.494;2023-05-16T05:29:03;10.10;;;2.90;;
16320;SDS011;8269;50.990;4.494;2023-05-16T05:31:30;12.85;;;3.50;;
16320;SDS011;8269;50.990;4.494;2023-05-16T05:33:57;10.82;;;3.30;;
16320;SDS011;8269;50.990;4.494;2023-05-16T05:36:24;10.90;;;3.15;;
16320;SDS011;8269;50.990;4.494;2023-05-16T05:38:50;8.60;;;2.75;;
16320;SDS011;8269;50.990;4.494;2023-05-16T05:41:16;10.90;;;2.90;;
16320;SDS011;8269;50.990;4.494;2023-05-16T05:43:42;11.98;;;2.85;;
16320;SDS011;8269;50.990;4.494;2023-05-16T05:46:08;13.30;;;3.00;;
16320;SDS011;8269;50.990;4.494;2023-05-16T05:48:33;11.50;;;2.90;;
16320;SDS011;8269;50.990;4.494;2023-05-16T05:50:59;9.23;;;3.60;;
16320;SDS011;8269;50.990;4.494;2023-05-16T05:53:25;11.57;;;3.20;;
16320;SDS011;8269;50.990;4.494;2023-05-16T05:55:51;9.88;;;3.10;;
16320;SDS011;8269;50.990;4.494;2023-05-16T05:58:16;10.32;;;3.00;;
16320;SDS011;8269;50.990;4.494;2023-05-16T06:00:42;13.63;;;3.10;;
16320;SDS011;8269;50.990;4.494;2023-05-16T06:03:10;11.25;;;3.03;;
16320;SDS011;8269;50.990;4.494;2023-05-16T06:05:37;12.50;;;3.13;;
16320;SDS011;8269;50.990;4.494;2023-05-16T06:08:02;11.80;;;2.90;;
16320;SDS011;8269;50.990;4.494;2023-05-16T06:10:29;11.57;;;2.58;;
16320;SDS011;8269;50.990;4.494;2023-05-16T06:12:55;7.88;;;2.22;;
16320;SDS011;8269;50.990;4.494;2023-05-16T06:15:21;8.27;;;1.95;;
16320;SDS011;8269;50.990;4.494;2023-05-16T06:17:46;7.82;;;1.67;;
16320;SDS011;8269;50.990;4.494;2023-05-16T06:20:13;6.00;;;1.58;;
16320;SDS011;8269;50.990;4.494;2023-05-16T06:22:38;11.60;;;2.08;;
16320;SDS011;8269;50.990;4.494;2023-05-16T06:25:04;10.65;;;2.15;;
16320;SDS011;8269;50.990;4.494;2023-05-16T06:27:30;13.90;;;2.40;;
16320;SDS011;8269;50.990;4.494;2023-05-16T06:29:57;7.85;;;2.17;;
16320;SDS011;8269;50.990;4.494;2023-05-16T06:32:23;9.60;;;2.13;;
16320;SDS011;8269;50.990;4.494;2023-05-16T06:34:48;9.65;;;2.10;;
16320;SDS011;8269;50.990;4.494;2023-05-16T06:37:14;8.82;;;1.90;;
16320;SDS011;8269;50.990;4.494;2023-05-16T06:39:40;6.75;;;1.63;;
16320;SDS011;8269;50.990;4.494;2023-05-16T06:42:05;7.50;;;1.80;;
16320;SDS011;8269;50.990;4.494;2023-05-16T06:44:31;9.45;;;2.20;;
16320;SDS011;8269;50.990;4.494;2023-05-16T06:46:57;7.72;;;1.80;;
16320;SDS011;8269;50.990;4.494;2023-05-16T06:49:23;6.22;;;1.45;;
16320;SDS011;8269;50.990;4.494;2023-05-16T06:51:49;5.55;;;1.65;;
16320;SDS011;8269;50.990;4.494;2023-05-16T06:54:15;8.27;;;1.58;;
16320;SDS011;8269;50.990;4.494;2023-05-16T06:56:41;7.18;;;1.73;;
16320;SDS011;8269;50.990;4.494;2023-05-16T06:59:07;10.43;;;2.03;;
16320;SDS011;8269;50.990;4.494;2023-05-16T07:01:33;7.40;;;1.88;;
16320;SDS011;8269;50.990;4.494;2023-05-16T07:03:59;8.70;;;1.95;;
16320;SDS011;8269;50.990;4.494;2023-05-16T07:06:25;6.57;;;1.38;;
16320;SDS011;8269;50.990;4.494;2023-05-16T07:08:51;8.60;;;1.70;;
16320;SDS011;8269;50.990;4.494;2023-05-16T07:11:17;8.35;;;1.67;;
16320;SDS011;8269;50.990;4.494;2023-05-16T07:13:43;7.80;;;1.40;;
16320;SDS011;8269;50.990;4.494;2023-05-16T07:16:10;6.45;;;1.65;;
16320;SDS011;8269;50.990;4.494;2023-05-16T07:18:36;6.32;;;1.25;;
16320;SDS011;8269;50.990;4.494;2023-05-16T07:21:02;7.15;;;1.45;;
16320;SDS011;8269;50.990;4.494;2023-05-16T07:23:28;3.47;;;1.20;;
16320;SDS011;8269;50.990;4.494;2023-05-16T07:25:54;7.50;;;1.33;;
16320;SDS011;8269;50.990;4.494;2023-05-16T07:28:20;7.32;;;1.33;;
16320;SDS011;8269;50.990;4.494;2023-05-16T07:30:48;7.30;;;1.50;;
16320;SDS011;8269;50.990;4.494;2023-05-16T07:33:13;6.60;;;1.50;;
16320;SDS011;8269;50.990;4.494;2023-05-16T07:35:39;4.70;;;1.25;;
16320;SDS011;8269;50.990;4.494;2023-05-16T07:38:06;5.72;;;1.67;;
16320;SDS011;8269;50.990;4.494;2023-05-16T07:40:31;4.90;;;1.30;;
16320;SDS011;8269;50.990;4.494;2023-05-16T07:42:57;5.55;;;0.90;;
16320;SDS011;8269;50.990;4.494;2023-05-16T07:45:23;5.72;;;1.42;;
16320;SDS011;8269;50.990;4.494;2023-05-16T07:47:49;5.90;;;1.45;;
16320;SDS011;8269;50.990;4.494;2023-05-16T07:50:15;5.65;;;1.27;;
16320;SDS011;8269;50.990;4.494;2023-05-16T07:52:40;6.00;;;1.58;;
16320;SDS011;8269;50.990;4.494;2023-05-16T07:55:06;5.28;;;1.45;;
16320;SDS011;8269;50.990;4.494;2023-05-16T07:57:32;5.05;;;1.50;;
16320;SDS011;8269;50.990;4.494;2023-05-16T07:59:58;5.88;;;1.52;;
16320;SDS011;8269;50.990;4.494;2023-05-16T08:02:23;5.03;;;1.48;;
16320;SDS011;8269;50.990;4.494;2023-05-16T08:04:54;6.38;;;1.58;;
16320;SDS011;8269;50.990;4.494;2023-05-16T08:07:21;9.33;;;1.80;;
16320;SDS011;8269;50.990;4.494;2023-05-16T08:09:46;9.68;;;2.08;;
16320;SDS011;8269;50.990;4.494;2023-05-16T08:12:12;5.97;;;1.70;;
16320;SDS011;8269;50.990;4.494;2023-05-16T08:14:37;6.50;;;1.40;;
16320;SDS011;8269;50.990;4.494;2023-05-16T08:17:03;4.25;;;1.20;;
16320;SDS011;8269;50.990;4.494;2023-05-16T08:19:29;6.82;;;1.55;;
16320;SDS011;8269;50.990;4.494;2023-05-16T08:21:56;5.88;;;1.50;;
16320;SDS011;8269;50.990;4.494;2023-05-16T08:24:22;6.68;;;1.90;;
16320;SDS011;8269;50.990;4.494;2023-05-16T08:26:48;8.10;;;1.73;;
16320;SDS011;8269;50.990;4.494;2023-05-16T08:29:14;6.60;;;1.50;;
16320;SDS011;8269;50.990;4.494;2023-05-16T08:31:40;5.72;;;1.35;;
16320;SDS011;8269;50.990;4.494;2023-05-16T08:34:06;8.15;;;1.80;;
16320;SDS011;8269;50.990;4.494;2023-05-16T08:36:33;8.55;;;1.83;;
16320;SDS011;8269;50.990;4.494;2023-05-16T08:38:59;6.25;;;1.50;;
16320;SDS011;8269;50.990;4.494;2023-05-16T08:41:25;5.43;;;1.60;;
16320;SDS011;8269;50.990;4.494;2023-05-16T08:43:51;4.47;;;1.58;;
16320;SDS011;8269;50.990;4.494;2023-05-16T08:46:19;6.63;;;1.50;;
16320;SDS011;8269;50.990;4.494;2023-05-16T08:48:46;6.13;;;1.48;;
16320;SDS011;8269;50.990;4.494;2023-05-16T08:51:20;5.10;;;1.30;;
16320;SDS011;8269;50.990;4.494;2023-05-16T08:53:51;4.80;;;1.35;;
16320;SDS011;8269;50.990;4.494;2023-05-16T08:56:21;5.78;;;1.15;;
16320;SDS011;8269;50.990;4.494;2023-05-16T08:58:49;6.13;;;1.58;;
16320;SDS011;8269;50.990;4.494;2023-05-16T09:01:19;5.72;;;1.52;;
16320;SDS011;8269;50.990;4.494;2023-05-16T09:03:47;5.65;;;1.48;;
16320;SDS011;8269;50.990;4.494;2023-05-16T09:06:17;6.10;;;1.35;;
16320;SDS011;8269;50.990;4.494;2023-05-16T09:08:43;6.70;;;1.33;;
16320;SDS011;8269;50.990;4.494;2023-05-16T09:11:09;7.47;;;1.60;;
16320;SDS011;8269;50.990;4.494;2023-05-16T09:13:36;4.93;;;1.45;;
16320;SDS011;8269;50.990;4.494;2023-05-16T09:16:06;6.18;;;1.38;;
16320;SDS011;8269;50.990;4.494;2023-05-16T09:18:36;5.43;;;1.45;;
16320;SDS011;8269;50.990;4.494;2023-05-16T09:21:06;4.93;;;1.30;;
16320;SDS011;8269;50.990;4.494;2023-05-16T09:23:33;5.78;;;1.38;;
16320;SDS011;8269;50.990;4.494;2023-05-16T09:25:59;4.90;;;1.23;;
16320;SDS011;8269;50.990;4.494;2023-05-16T09:28:25;6.43;;;1.42;;
16320;SDS011;8269;50.990;4.494;2023-05-16T09:30:51;6.13;;;1.70;;
16320;SDS011;8269;50.990;4.494;2023-05-16T09:33:21;4.18;;;1.38;;
16320;SDS011;8269;50.990;4.494;2023-05-16T09:36:00;6.55;;;1.42;;
16320;SDS011;8269;50.990;4.494;2023-05-16T09:38:27;4.80;;;1.08;;
16320;SDS011;8269;50.990;4.494;2023-05-16T09:40:53;7.30;;;1.38;;
16320;SDS011;8269;50.990;4.494;2023-05-16T09:43:24;4.18;;;1.17;;
16320;SDS011;8269;50.990;4.494;2023-05-16T09:45:50;4.78;;;1.50;;
16320;SDS011;8269;50.990;4.494;2023-05-16T09:48:19;6.82;;;1.42;;
16320;SDS011;8269;50.990;4.494;2023-05-16T09:50:49;8.25;;;1.67;;
16320;SDS011;8269;50.990;4.494;2023-05-16T09:53:17;6.47;;;1.40;;
16320;SDS011;8269;50.990;4.494;2023-05-16T09:58:29;6.90;;;1.55;;
16320;SDS011;8269;50.990;4.494;2023-05-16T10:00:56;4.43;;;1.40;;
16320;SDS011;8269;50.990;4.494;2023-05-16T10:03:22;6.20;;;1.33;;
16320;SDS011;8269;50.990;4.494;2023-05-16T10:05:49;5.05;;;1.20;;
16320;SDS011;8269;50.990;4.494;2023-05-16T10:08:17;5.93;;;1.50;;
16320;SDS011;8269;50.990;4.494;2023-05-16T10:10:43;5.55;;;1.50;;
16320;SDS011;8269;50.990;4.494;2023-05-16T10:13:10;4.45;;;1.20;;
16320;SDS011;8269;50.990;4.494;2023-05-16T10:15:37;4.47;;;1.02;;
16320;SDS011;8269;50.990;4.494;2023-05-16T10:18:03;6.65;;;1.50;;
16320;SDS011;8269;50.990;4.494;2023-05-16T10:20:35;2.83;;;1.15;;
16320;SDS011;8269;50.990;4.494;2023-05-16T10:23:03;3.25;;;1.40;;
16320;SDS011;8269;50.990;4.494;2023-05-16T10:28:00;6.03;;;1.58;;
16320;SDS011;8269;50.990;4.494;2023-05-16T10:30:27;5.90;;;1.05;;
16320;SDS011;8269;50.990;4.494;2023-05-16T10:32:52;6.80;;;1.45;;
16320;SDS011;8269;50.990;4.494;2023-05-16T10:35:20;5.47;;;1.50;;
16320;SDS011;8269;50.990;4.494;2023-05-16T10:37:46;5.30;;;1.88;;
16320;SDS011;8269;50.990;4.494;2023-05-16T10:40:13;5.97;;;1.50;;
16320;SDS011;8269;50.990;4.494;2023-05-16T10:42:42;5.50;;;1.27;;
16320;SDS011;8269;50.990;4.494;2023-05-16T10:45:18;6.78;;;1.48;;
16320;SDS011;8269;50.990;4.494;2023-05-16T10:48:01;6.70;;;1.75;;
16320;SDS011;8269;50.990;4.494;2023-05-16T10:53:22;4.93;;;1.70;;
16320;SDS011;8269;50.990;4.494;2023-05-16T11:04:08;6.80;;;1.27;;
16320;SDS011;8269;50.990;4.494;2023-05-16T11:14:26;4.60;;;1.20;;
16320;SDS011;8269;50.990;4.494;2023-05-16T11:16:59;5.53;;;1.45;;
16320;SDS011;8269;50.990;4.494;2023-05-16T11:25:08;7.60;;;1.77;;
16320;SDS011;8269;50.990;4.494;2023-05-16T11:32:30;6.18;;;1.67;;
16320;SDS011;8269;50.990;4.494;2023-05-16T11:34:58;6.53;;;1.40;;
16320;SDS011;8269;50.990;4.494;2023-05-16T11:37:24;3.92;;;1.33;;
16320;SDS011;8269;50.990;4.494;2023-05-16T11:39:50;4.97;;;1.45;;
16320;SDS011;8269;50.990;4.494;2023-05-16T11:42:15;6.85;;;1.33;;
16320;SDS011;8269;50.990;4.494;2023-05-16T11:44:42;6.50;;;1.58;;
16320;SDS011;8269;50.990;4.494;2023-05-16T11:47:09;6.18;;;1.42;;
16320;SDS011;8269;50.990;4.494;2023-05-16T11:49:36;5.45;;;1.20;;
16320;SDS011;8269;50.990;4.494;2023-05-16T11:52:02;6.82;;;1.50;;
16320;SDS011;8269;50.990;4.494;2023-05-16T11:54:29;5.50;;;1.38;;
16320;SDS011;8269;50.990;4.494;2023-05-16T11:56:55;3.88;;;1.25;;
16320;SDS011;8269;50.990;4.494;2023-05-16T11:59:21;5.93;;;1.48;;
16320;SDS011;8269;50.990;4.494;2023-05-16T12:01:47;6.10;;;1.63;;
16320;SDS011;8269;50.990;4.494;2023-05-16T12:04:14;8.55;;;1.70;;
16320;SDS011;8269;50.990;4.494;2023-05-16T12:06:41;6.50;;;1.75;;
16320;SDS011;8269;50.990;4.494;2023-05-16T12:09:14;4.68;;;1.38;;
16320;SDS011;8269;50.990;4.494;2023-05-16T12:11:42;7.78;;;1.90;;
16320;SDS011;8269;50.990;4.494;2023-05-16T12:14:09;5.63;;;1.48;;
16320;SDS011;8269;50.990;4.494;2023-05-16T12:16:37;6.78;;;1.30;;
16320;SDS011;8269;50.990;4.494;2023-05-16T12:19:04;6.10;;;1.70;;
16320;SDS011;8269;50.990;4.494;2023-05-16T12:21:30;5.07;;;1.13;;
16320;SDS011;8269;50.990;4.494;2023-05-16T12:23:56;3.28;;;1.15;;
16320;SDS011;8269;50.990;4.494;2023-05-16T12:26:26;5.93;;;1.25;;
16320;SDS011;8269;50.990;4.494;2023-05-16T12:29:01;5.40;;;1.35;;
16320;SDS011;8269;50.990;4.494;2023-05-16T12:31:29;5.45;;;1.27;;
16320;SDS011;8269;50.990;4.494;2023-05-16T12:34:00;6.25;;;1.55;;
16320;SDS011;8269;50.990;4.494;2023-05-16T12:36:29;5.47;;;1.17;;
16320;SDS011;8269;50.990;4.494;2023-05-16T12:38:58;4.55;;;1.27;;
16320;SDS011;8269;50.990;4.494;2023-05-16T12:41:28;6.18;;;1.60;;
16320;SDS011;8269;50.990;4.494;2023-05-16T12:44:11;5.30;;;1.48;;
16320;SDS011;8269;50.990;4.494;2023-05-16T12:46:44;5.90;;;1.30;;
16320;SDS011;8269;50.990;4.494;2023-05-16T12:49:11;4.53;;;1.20;;
16320;SDS011;8269;50.990;4.494;2023-05-16T12:51:37;5.97;;;1.45;;
16320;SDS011;8269;50.990;4.494;2023-05-16T12:54:10;6.63;;;1.30;;
16320;SDS011;8269;50.990;4.494;2023-05-16T12:56:37;4.22;;;1.10;;
16320;SDS011;8269;50.990;4.494;2023-05-16T12:59:03;4.95;;;1.42;;
16320;SDS011;8269;50.990;4.494;2023-05-16T13:01:29;3.35;;;1.45;;
16320;SDS011;8269;50.990;4.494;2023-05-16T13:03:54;8.10;;;1.77;;
16320;SDS011;8269;50.990;4.494;2023-05-16T13:06:20;5.65;;;1.63;;
16320;SDS011;8269;50.990;4.494;2023-05-16T13:08:46;4.88;;;1.42;;
16320;SDS011;8269;50.990;4.494;2023-05-16T13:11:12;4.82;;;1.73;;
16320;SDS011;8269;50.990;4.494;2023-05-16T13:13:38;8.55;;;1.55;;
16320;SDS011;8269;50.990;4.494;2023-05-16T13:16:04;7.00;;;1.58;;
16320;SDS011;8269;50.990;4.494;2023-05-16T13:18:30;7.38;;;1.50;;
16320;SDS011;8269;50.990;4.494;2023-05-16T13:20:58;4.47;;;1.45;;
16320;SDS011;8269;50.990;4.494;2023-05-16T13:23:24;6.15;;;1.60;;
16320;SDS011;8269;50.990;4.494;2023-05-16T13:25:51;6.07;;;1.38;;
16320;SDS011;8269;50.990;4.494;2023-05-16T13:28:17;6.05;;;1.58;;
16320;SDS011;8269;50.990;4.494;2023-05-16T13:30:43;7.03;;;1.42;;
16320;SDS011;8269;50.990;4.494;2023-05-16T13:33:10;4.78;;;1.48;;
16320;SDS011;8269;50.990;4.494;2023-05-16T13:35:36;6.97;;;1.90;;
16320;SDS011;8269;50.990;4.494;2023-05-16T13:38:02;5.43;;;1.65;;
16320;SDS011;8269;50.990;4.494;2023-05-16T13:40:28;5.88;;;1.33;;
16320;SDS011;8269;50.990;4.494;2023-05-16T13:42:54;7.32;;;1.55;;
16320;SDS011;8269;50.990;4.494;2023-05-16T13:45:21;4.43;;;0.95;;
16320;SDS011;8269;50.990;4.494;2023-05-16T13:47:47;3.92;;;1.10;;
16320;SDS011;8269;50.990;4.494;2023-05-16T13:50:13;5.70;;;1.45;;
16320;SDS011;8269;50.990;4.494;2023-05-16T13:52:39;4.68;;;1.50;;
16320;SDS011;8269;50.990;4.494;2023-05-16T13:55:05;5.28;;;1.40;;
16320;SDS011;8269;50.990;4.494;2023-05-16T13:57:32;7.25;;;1.60;;
16320;SDS011;8269;50.990;4.494;2023-05-16T13:59:58;3.65;;;1.13;;
16320;SDS011;8269;50.990;4.494;2023-05-16T14:02:24;5.72;;;1.20;;
16320;SDS011;8269;50.990;4.494;2023-05-16T14:04:50;4.38;;;1.23;;
16320;SDS011;8269;50.990;4.494;2023-05-16T14:07:17;4.25;;;1.40;;
16320;SDS011;8269;50.990;4.494;2023-05-16T14:09:43;5.18;;;1.33;;
16320;SDS011;8269;50.990;4.494;2023-05-16T14:12:09;4.93;;;1.10;;
16320;SDS011;8269;50.990;4.494;2023-05-16T14:14:35;7.70;;;1.30;;
16320;SDS011;8269;50.990;4.494;2023-05-16T14:17:01;4.35;;;1.15;;
16320;SDS011;8269;50.990;4.494;2023-05-16T14:19:28;5.20;;;1.20;;
16320;SDS011;8269;50.990;4.494;2023-05-16T14:21:54;6.20;;;1.33;;
16320;SDS011;8269;50.990;4.494;2023-05-16T14:24:21;6.88;;;1.40;;
16320;SDS011;8269;50.990;4.494;2023-05-16T14:26:47;5.30;;;1.20;;
16320;SDS011;8269;50.990;4.494;2023-05-16T14:29:12;7.80;;;1.50;;
16320;SDS011;8269;50.990;4.494;2023-05-16T14:31:38;3.38;;;1.23;;
16320;SDS011;8269;50.990;4.494;2023-05-16T14:34:04;5.25;;;1.20;;
16320;SDS011;8269;50.990;4.494;2023-05-16T14:36:31;3.50;;;0.93;;
16320;SDS011;8269;50.990;4.494;2023-05-16T14:38:57;5.55;;;1.05;;
16320;SDS011;8269;50.990;4.494;2023-05-16T14:41:23;4.80;;;1.10;;
16320;SDS011;8269;50.990;4.494;2023-05-16T14:43:49;5.22;;;1.30;;
16320;SDS011;8269;50.990;4.494;2023-05-16T14:46:14;4.32;;;1.38;;
16320;SDS011;8269;50.990;4.494;2023-05-16T14:48:41;5.65;;;1.02;;
16320;SDS011;8269;50.990;4.494;2023-05-16T14:51:06;4.88;;;1.40;;
16320;SDS011;8269;50.990;4.494;2023-05-16T14:53:32;5.78;;;1.02;;
16320;SDS011;8269;50.990;4.494;2023-05-16T14:55:58;3.95;;;1.10;;
16320;SDS011;8269;50.990;4.494;2023-05-16T14:58:26;4.32;;;1.13;;
16320;SDS011;8269;50.990;4.494;2023-05-16T15:00:53;5.15;;;1.40;;
16320;SDS011;8269;50.990;4.494;2023-05-16T15:03:19;4.25;;;1.00;;
16320;SDS011;8269;50.990;4.494;2023-05-16T15:05:45;3.47;;;1.00;;
16320;SDS011;8269;50.990;4.494;2023-05-16T15:08:11;4.38;;;1.15;;
16320;SDS011;8269;50.990;4.494;2023-05-16T15:10:37;4.45;;;1.02;;
16320;SDS011;8269;50.990;4.494;2023-05-16T15:13:03;3.80;;;0.80;;
16320;SDS011;8269;50.990;4.494;2023-05-16T15:15:30;2.78;;;0.98;;
16320;SDS011;8269;50.990;4.494;2023-05-16T15:17:58;4.43;;;1.20;;
16320;SDS011;8269;50.990;4.494;2023-05-16T15:20:24;5.05;;;1.20;;
16320;SDS011;8269;50.990;4.494;2023-05-16T15:22:50;3.90;;;1.08;;
16320;SDS011;8269;50.990;4.494;2023-05-16T15:25:16;3.58;;;1.05;;
16320;SDS011;8269;50.990;4.494;2023-05-16T15:27:43;3.25;;;1.35;;
16320;SDS011;8269;50.990;4.494;2023-05-16T15:30:09;3.97;;;1.10;;
16320;SDS011;8269;50.990;4.494;2023-05-16T15:32:36;6.93;;;1.77;;
16320;SDS011;8269;50.990;4.494;2023-05-16T15:35:03;4.30;;;1.25;;
16320;SDS011;8269;50.990;4.494;2023-05-16T15:37:30;2.80;;;1.00;;
16320;SDS011;8269;50.990;4.494;2023-05-16T15:39:56;4.03;;;1.13;;
16320;SDS011;8269;50.990;4.494;2023-05-16T15:42:22;2.72;;;0.80;;
16320;SDS011;8269;50.990;4.494;2023-05-16T15:44:48;5.55;;;1.45;;
16320;SDS011;8269;50.990;4.494;2023-05-16T15:47:14;4.13;;;1.38;;